createdAt,value
2023-04-08T00:00:50.172Z,7.02
2023-04-08T00:03:17.690Z,6.95
2023-04-08T00:05:46.421Z,7.02
2023-04-08T00:08:14.108Z,7.01
2023-04-08T00:10:41.494Z,6.95
2023-04-08T00:13:08.841Z,7.05
2023-04-08T00:15:37.135Z,7.07
2023-04-08T00:18:04.176Z,6.93
2023-04-08T00:20:31.303Z,6.98
2023-04-08T00:22:58.219Z,6.97
2023-04-08T00:25:26.023Z,7.15
2023-04-08T00:27:53.089Z,7.21
2023-04-08T00:30:20.012Z,7.04
2023-04-08T00:32:47.352Z,6.85
2023-04-08T00:35:14.383Z,6.78
2023-04-08T00:37:41.903Z,6.75
2023-04-08T00:40:09.458Z,6.68
2023-04-08T00:42:36.976Z,6.92
2023-04-08T00:45:04.148Z,6.65
2023-04-08T00:47:31.421Z,6.96
2023-04-08T00:49:58.356Z,7.09
2023-04-08T00:52:26.190Z,7.15
2023-04-08T00:54:53.167Z,7.00
2023-04-08T00:57:20.288Z,6.82
2023-04-08T00:59:47.226Z,6.79
2023-04-08T01:03:16.142Z,6.82
2023-04-08T01:05:54.321Z,6.90
2023-04-08T01:08:21.890Z,6.98
2023-04-08T01:10:51.857Z,6.99
2023-04-08T01:13:19.284Z,7.04
2023-04-08T01:15:46.500Z,7.00
2023-04-08T01:18:14.613Z,6.96
2023-04-08T01:20:42.700Z,6.97
2023-04-08T01:23:54.396Z,6.92
2023-04-08T01:26:23.775Z,6.75
2023-04-08T01:28:52.798Z,6.54
2023-04-08T01:31:19.694Z,6.63
2023-04-08T01:33:48.358Z,6.73
2023-04-08T01:36:15.890Z,6.54
2023-04-08T01:38:42.810Z,6.49
2023-04-08T01:41:10.956Z,6.73
2023-04-08T01:43:40.667Z,6.61
2023-04-08T01:46:08.738Z,6.79
2023-04-08T01:48:36.271Z,6.84
2023-04-08T01:51:05.240Z,7.03
2023-04-08T01:53:33.091Z,6.84
2023-04-08T01:56:05.456Z,6.77
2023-04-08T01:58:41.432Z,6.80
2023-04-08T02:01:12.628Z,6.70
2023-04-08T02:03:42.749Z,6.76
2023-04-08T02:06:09.595Z,6.75
2023-04-08T02:08:39.296Z,6.73
2023-04-08T02:11:06.522Z,6.83
2023-04-08T02:13:33.513Z,6.78
2023-04-08T02:16:16.708Z,6.81
2023-04-08T02:18:46.568Z,6.70
2023-04-08T02:21:15.851Z,6.71
2023-04-08T02:23:45.984Z,6.63
2023-04-08T02:26:17.355Z,6.69
2023-04-08T02:28:45.064Z,6.73
2023-04-08T02:31:14.006Z,6.86
2023-04-08T02:33:41.465Z,6.94
2023-04-08T02:36:08.582Z,6.82
2023-04-08T02:38:35.677Z,6.83
2023-04-08T02:41:02.385Z,6.70
2023-04-08T02:43:32.733Z,6.46
2023-04-08T02:46:01.068Z,6.71
2023-04-08T02:48:27.838Z,6.77
2023-04-08T02:50:54.777Z,6.70
2023-04-08T02:53:22.706Z,6.67
2023-04-08T02:55:49.556Z,6.54
2023-04-08T02:58:16.355Z,6.53
2023-04-08T03:00:43.675Z,6.58
2023-04-08T03:03:10.634Z,6.56
2023-04-08T03:05:37.461Z,6.59
2023-04-08T03:08:04.207Z,6.48
2023-04-08T03:10:31.323Z,6.56
2023-04-08T03:12:58.051Z,6.72
2023-04-08T03:15:24.840Z,6.71
2023-04-08T03:17:51.759Z,6.72
2023-04-08T03:20:18.563Z,6.63
2023-04-08T03:22:45.252Z,6.66
2023-04-08T03:25:12.194Z,6.62
2023-04-08T03:27:38.910Z,6.69
2023-04-08T03:30:06.426Z,6.67
2023-04-08T03:32:33.559Z,6.61
2023-04-08T03:35:00.701Z,6.71
2023-04-08T03:37:27.560Z,6.75
2023-04-08T03:39:55.764Z,6.79
2023-04-08T03:42:22.983Z,6.64
2023-04-08T03:44:49.754Z,6.63
2023-04-08T03:47:16.508Z,6.71
2023-04-08T03:49:43.269Z,6.61
2023-04-08T03:52:10.018Z,6.64
2023-04-08T03:54:36.808Z,6.42
2023-04-08T03:57:03.614Z,6.29
2023-04-08T03:59:30.384Z,6.45
2023-04-08T04:01:57.461Z,6.68
2023-04-08T04:04:24.512Z,6.78
2023-04-08T04:06:51.298Z,6.54
2023-04-08T04:09:18.144Z,6.48
2023-04-08T04:11:44.845Z,6.55
2023-04-08T04:14:11.756Z,6.43
2023-04-08T04:16:38.591Z,6.55
2023-04-08T04:19:05.459Z,6.57
2023-04-08T04:21:32.207Z,6.75
2023-04-08T04:23:58.971Z,6.33
2023-04-08T04:26:25.990Z,6.39
2023-04-08T04:28:52.992Z,6.31
2023-04-08T04:31:22.189Z,6.19
2023-04-08T04:33:49.621Z,6.21
2023-04-08T04:36:16.431Z,6.34
2023-04-08T04:38:43.460Z,6.39
2023-04-08T04:41:11.466Z,6.52
2023-04-08T04:43:38.441Z,6.46
2023-04-08T04:46:07.520Z,6.57
2023-04-08T04:48:34.305Z,6.62
2023-04-08T04:51:04.674Z,6.54
2023-04-08T04:53:31.947Z,6.65
2023-04-08T04:55:58.973Z,6.73
2023-04-08T04:58:25.749Z,6.84
2023-04-08T05:00:52.609Z,6.80
2023-04-08T05:03:19.484Z,6.75
2023-04-08T05:05:51.469Z,6.68
2023-04-08T05:08:18.200Z,6.58
2023-04-08T05:10:44.895Z,6.58
2023-04-08T05:13:11.639Z,6.42
2023-04-08T05:15:38.358Z,6.68
2023-04-08T05:18:05.191Z,6.77
2023-04-08T05:20:32.511Z,6.44
2023-04-08T05:22:59.209Z,6.49
2023-04-08T05:25:26.012Z,6.46
2023-04-08T05:27:53.275Z,6.49
2023-04-08T05:30:20.230Z,6.43
2023-04-08T05:32:47.348Z,6.41
2023-04-08T05:35:14.161Z,6.31
2023-04-08T05:37:41.068Z,6.72
2023-04-08T05:40:08.510Z,6.61
2023-04-08T05:42:35.269Z,6.46
2023-04-08T05:45:02.102Z,6.54
2023-04-08T05:47:28.861Z,6.70
2023-04-08T05:49:55.668Z,6.72
2023-04-08T05:52:22.718Z,6.69
2023-04-08T05:54:49.557Z,6.67
2023-04-08T05:57:17.113Z,6.78
2023-04-08T05:59:43.852Z,6.87
2023-04-08T06:02:10.813Z,6.88
2023-04-08T06:04:37.787Z,6.68
2023-04-08T06:07:06.322Z,6.64
2023-04-08T06:09:36.384Z,6.93
2023-04-08T06:12:03.292Z,6.91
2023-04-08T06:14:30.026Z,6.87
2023-04-08T06:16:57.871Z,6.90
2023-04-08T06:19:25.183Z,6.89
2023-04-08T06:21:51.986Z,6.83
2023-04-08T06:24:19.227Z,6.96
2023-04-08T06:26:45.963Z,7.07
2023-04-08T06:29:12.669Z,7.08
2023-04-08T06:31:39.715Z,7.12
2023-04-08T06:34:06.454Z,7.11
2023-04-08T06:36:33.355Z,7.15
2023-04-08T06:39:00.274Z,7.21
2023-04-08T06:41:26.999Z,7.45
2023-04-08T06:43:53.760Z,7.40
2023-04-08T06:46:21.189Z,7.42
2023-04-08T06:48:48.269Z,7.47
2023-04-08T06:51:15.207Z,7.43
2023-04-08T06:53:41.915Z,7.32
2023-04-08T06:56:08.704Z,7.22
2023-04-08T06:58:35.659Z,6.88
2023-04-08T07:01:03.534Z,7.02
2023-04-08T07:03:30.404Z,7.16
2023-04-08T07:05:57.112Z,7.20
2023-04-08T07:08:23.840Z,7.11
2023-04-08T07:10:52.983Z,7.23
2023-04-08T07:13:19.766Z,7.07
2023-04-08T07:15:46.589Z,7.04
2023-04-08T07:18:14.036Z,7.09
2023-04-08T07:20:42.249Z,7.37
2023-04-08T07:23:09.912Z,7.31
2023-04-08T07:25:37.752Z,7.23
2023-04-08T07:28:04.625Z,7.18
2023-04-08T07:30:31.346Z,7.13
2023-04-08T07:33:00.747Z,7.27
2023-04-08T07:35:28.274Z,7.31
2023-04-08T07:37:55.806Z,7.37
2023-04-08T07:40:22.684Z,7.44
2023-04-08T07:42:49.596Z,7.58
2023-04-08T07:45:16.702Z,7.63
2023-04-08T07:47:44.519Z,7.32
2023-04-08T07:50:12.243Z,7.47
2023-04-08T07:52:38.959Z,7.45
2023-04-08T07:55:06.804Z,7.38
2023-04-08T07:57:33.570Z,7.39
2023-04-08T08:00:00.676Z,7.21
2023-04-08T08:02:27.495Z,7.23
2023-04-08T08:04:54.318Z,7.12
2023-04-08T08:07:21.253Z,7.10
2023-04-08T08:09:48.057Z,7.29
2023-04-08T08:12:14.793Z,7.40
2023-04-08T08:14:41.505Z,7.44
2023-04-08T08:17:08.231Z,7.42
2023-04-08T08:19:35.001Z,7.50
2023-04-08T08:22:01.750Z,7.46
2023-04-08T08:24:28.559Z,7.49
2023-04-08T08:26:55.884Z,7.35
2023-04-08T08:29:22.627Z,7.44
2023-04-08T08:31:49.602Z,7.36
2023-04-08T08:34:16.980Z,7.51
2023-04-08T08:36:43.750Z,7.56
2023-04-08T08:39:10.603Z,7.60
2023-04-08T08:41:38.033Z,7.47
2023-04-08T08:44:12.476Z,7.38
2023-04-08T08:46:47.648Z,7.45
2023-04-08T08:49:14.541Z,7.57
2023-04-08T08:51:42.504Z,7.66
2023-04-08T08:54:09.436Z,7.66
2023-04-08T08:56:36.222Z,7.62
2023-04-08T08:59:03.186Z,7.71
2023-04-08T09:01:38.609Z,7.63
2023-04-08T09:04:17.428Z,7.70
2023-04-08T09:06:47.174Z,7.74
2023-04-08T09:09:14.489Z,7.83
2023-04-08T09:11:46.569Z,7.98
2023-04-08T09:14:26.446Z,7.90
2023-04-08T09:16:53.675Z,7.96
2023-04-08T09:19:20.776Z,8.07
2023-04-08T09:22:05.045Z,7.95
2023-04-08T09:24:32.387Z,8.04
2023-04-08T09:26:59.344Z,8.12
2023-04-08T09:29:33.373Z,8.08
2023-04-08T09:32:03.675Z,8.26
2023-04-08T09:34:32.661Z,8.29
2023-04-08T09:36:59.504Z,8.29
2023-04-08T09:39:26.284Z,8.39
2023-04-08T09:41:53.296Z,8.34
2023-04-08T09:44:22.175Z,8.37
2023-04-08T09:47:12.445Z,8.32
2023-04-08T09:49:45.267Z,8.31
2023-04-08T09:52:16.005Z,8.35
2023-04-08T09:55:05.405Z,8.17
2023-04-08T09:57:57.235Z,8.28
2023-04-08T10:00:30.369Z,8.28
2023-04-08T10:03:45.655Z,8.34
2023-04-08T10:06:12.834Z,8.39
2023-04-08T10:08:39.628Z,8.41
2023-04-08T10:11:06.738Z,8.50
2023-04-08T10:13:33.884Z,8.47
2023-04-08T10:16:27.768Z,8.57
2023-04-08T10:18:57.645Z,8.59
2023-04-08T10:21:53.912Z,8.60
2023-04-08T10:24:25.927Z,8.56
2023-04-08T10:26:52.654Z,8.52
2023-04-08T10:29:39.640Z,8.53
2023-04-08T10:32:06.604Z,8.46
2023-04-08T10:34:33.435Z,8.48
2023-04-08T10:37:02.270Z,8.60
2023-04-08T10:39:29.116Z,8.47
2023-04-08T10:41:56.607Z,8.54
2023-04-08T10:44:25.332Z,8.61
2023-04-08T10:46:53.119Z,8.51
2023-04-08T10:49:20.031Z,8.55
2023-04-08T10:51:47.350Z,8.55
2023-04-08T10:54:16.742Z,8.73
2023-04-08T10:56:51.251Z,8.93
2023-04-08T10:59:27.532Z,8.99
2023-04-08T11:01:54.372Z,9.02
2023-04-08T11:04:24.340Z,9.06
2023-04-08T11:06:51.783Z,9.09
2023-04-08T11:09:21.615Z,9.18
2023-04-08T11:11:48.334Z,9.06
2023-04-08T11:14:17.513Z,9.14
2023-04-08T11:16:44.303Z,9.11
2023-04-08T11:19:13.991Z,9.26
2023-04-08T11:21:40.783Z,9.25
2023-04-08T11:24:12.388Z,9.29
2023-04-08T11:26:39.932Z,9.51
2023-04-08T11:29:07.282Z,9.73
2023-04-08T11:31:36.211Z,9.91
2023-04-08T11:34:03.257Z,9.93
2023-04-08T11:36:30.528Z,10.00
2023-04-08T11:38:57.375Z,9.98
2023-04-08T11:41:24.211Z,10.10
2023-04-08T11:43:52.481Z,10.22
2023-04-08T11:46:20.790Z,9.82
2023-04-08T11:49:04.585Z,9.78
2023-04-08T11:51:31.341Z,10.03
2023-04-08T11:53:58.262Z,10.22
2023-04-08T11:56:25.912Z,10.38
2023-04-08T11:58:53.034Z,10.43
2023-04-08T12:01:20.098Z,10.52
2023-04-08T12:04:01.609Z,10.61
2023-04-08T12:06:29.450Z,10.67
2023-04-08T12:08:57.232Z,10.40
2023-04-08T12:11:24.956Z,10.65
2023-04-08T12:13:53.280Z,10.48
2023-04-08T12:16:21.030Z,10.46
2023-04-08T12:18:47.947Z,10.62
2023-04-08T12:21:14.795Z,10.73
2023-04-08T12:23:43.483Z,10.55
2023-04-08T12:26:10.608Z,10.52
2023-04-08T12:28:37.996Z,10.41
2023-04-08T12:31:08.042Z,10.42
2023-04-08T12:33:34.849Z,10.38
2023-04-08T12:36:02.160Z,10.41
2023-04-08T12:38:29.026Z,10.30
2023-04-08T12:40:56.429Z,10.38
2023-04-08T12:43:24.015Z,10.47
2023-04-08T12:45:51.169Z,10.57
2023-04-08T12:48:18.037Z,10.45
2023-04-08T12:50:45.073Z,10.67
2023-04-08T12:53:11.865Z,10.91
2023-04-08T12:55:38.558Z,10.79
2023-04-08T12:58:06.368Z,10.79
2023-04-08T13:00:33.532Z,10.72
2023-04-08T13:03:00.739Z,10.69
2023-04-08T13:05:41.861Z,10.78
2023-04-08T13:08:10.058Z,10.74
2023-04-08T13:10:36.867Z,10.81
2023-04-08T13:13:03.687Z,10.81
2023-04-08T13:15:30.824Z,10.61
2023-04-08T13:17:57.588Z,10.73
2023-04-08T13:20:26.306Z,10.65
2023-04-08T13:22:53.461Z,10.61
2023-04-08T13:25:20.668Z,10.78
2023-04-08T13:27:47.409Z,10.70
2023-04-08T13:30:14.542Z,10.75
2023-04-08T13:32:41.590Z,10.57
2023-04-08T13:35:08.915Z,10.64
2023-04-08T13:37:35.869Z,10.43
2023-04-08T13:40:02.766Z,10.36
2023-04-08T13:42:31.733Z,10.13
2023-04-08T13:44:58.689Z,10.33
2023-04-08T13:47:25.749Z,10.24
2023-04-08T13:49:52.471Z,10.06
2023-04-08T13:52:19.447Z,10.11
2023-04-08T13:54:46.462Z,10.14
2023-04-08T13:57:13.378Z,10.12
2023-04-08T13:59:41.322Z,10.06
2023-04-08T14:02:08.815Z,9.84
2023-04-08T14:04:35.842Z,9.87
2023-04-08T14:07:02.918Z,9.92
2023-04-08T14:09:29.851Z,9.83
2023-04-08T14:11:57.222Z,9.81
2023-04-08T14:14:23.943Z,9.68
2023-04-08T14:16:50.994Z,9.81
2023-04-08T14:19:18.272Z,9.79
2023-04-08T14:21:45.175Z,9.85
2023-04-08T14:24:11.907Z,9.83
2023-04-08T14:26:38.770Z,9.82
2023-04-08T14:29:06.814Z,9.84
2023-04-08T14:31:37.731Z,10.09
2023-04-08T14:34:05.142Z,10.04
2023-04-08T14:36:31.982Z,10.08
2023-04-08T14:38:59.036Z,10.10
2023-04-08T14:41:28.911Z,10.03
2023-04-08T14:43:55.978Z,10.13
2023-04-08T14:46:23.153Z,10.11
2023-04-08T14:48:50.110Z,10.14
2023-04-08T14:51:17.897Z,10.16
2023-04-08T14:53:45.066Z,10.13
2023-04-08T14:56:12.131Z,10.13
2023-04-08T14:58:38.940Z,10.10
2023-04-08T15:01:05.754Z,10.11
2023-04-08T15:03:32.717Z,10.02
2023-04-08T15:06:00.013Z,10.00
2023-04-08T15:08:26.776Z,10.10
2023-04-08T15:10:53.490Z,10.10
2023-04-08T15:13:20.229Z,9.90
2023-04-08T15:15:46.966Z,9.80
2023-04-08T15:18:13.750Z,9.98
2023-04-08T15:20:40.520Z,10.13
2023-04-08T15:23:07.302Z,10.00
2023-04-08T15:25:34.555Z,10.04
2023-04-08T15:28:03.011Z,10.06
2023-04-08T15:30:35.628Z,9.98
2023-04-08T15:33:05.917Z,10.08
2023-04-08T15:35:33.344Z,10.02
2023-04-08T15:38:00.897Z,9.92
2023-04-08T15:40:30.485Z,9.97
2023-04-08T15:43:02.535Z,10.04
2023-04-08T15:45:42.737Z,10.09
2023-04-08T15:48:12.081Z,10.10
2023-04-08T15:50:39.277Z,10.00
2023-04-08T15:53:06.134Z,10.02
2023-04-08T15:55:38.106Z,10.05
2023-04-08T15:58:04.974Z,10.26
2023-04-08T16:00:32.067Z,10.07
2023-04-08T16:02:58.876Z,10.18
2023-04-08T16:05:25.777Z,10.20
2023-04-08T16:07:52.781Z,10.03
2023-04-08T16:10:19.491Z,10.06
2023-04-08T16:12:46.618Z,10.08
2023-04-08T16:15:13.399Z,9.97
2023-04-08T16:17:40.279Z,9.91
2023-04-08T16:20:07.697Z,9.98
2023-04-08T16:22:34.450Z,9.97
2023-04-08T16:25:01.484Z,9.97
2023-04-08T16:27:28.207Z,10.04
2023-04-08T16:29:55.007Z,9.98
2023-04-08T16:32:22.416Z,9.99
2023-04-08T16:34:49.201Z,9.95
2023-04-08T16:37:15.982Z,9.91
2023-04-08T16:39:42.811Z,9.88
2023-04-08T16:42:09.733Z,9.86
2023-04-08T16:44:36.489Z,9.78
2023-04-08T16:47:03.335Z,9.82
2023-04-08T16:49:30.084Z,9.87
2023-04-08T16:51:56.861Z,9.83
2023-04-08T16:54:23.718Z,9.81
2023-04-08T16:56:50.924Z,9.84
2023-04-08T16:59:17.739Z,9.78
2023-04-08T17:01:44.549Z,9.77
2023-04-08T17:04:11.751Z,9.88
2023-04-08T17:06:41.149Z,9.88
2023-04-08T17:09:09.424Z,9.82
2023-04-08T17:11:36.314Z,9.90
2023-04-08T17:14:03.847Z,9.86
2023-04-08T17:16:31.674Z,9.93
2023-04-08T17:18:58.457Z,9.89
2023-04-08T17:21:25.161Z,9.92
2023-04-08T17:23:52.497Z,9.89
2023-04-08T17:26:19.658Z,9.85
2023-04-08T17:28:46.560Z,9.73
2023-04-08T17:31:13.362Z,9.60
2023-04-08T17:33:40.156Z,9.59
2023-04-08T17:36:07.393Z,9.74
2023-04-08T17:38:35.896Z,9.74
2023-04-08T17:41:02.670Z,9.65
2023-04-08T17:43:29.415Z,9.63
2023-04-08T17:46:00.146Z,9.96
2023-04-08T17:48:27.536Z,9.80
2023-04-08T17:51:01.925Z,9.63
2023-04-08T17:53:28.994Z,9.63
2023-04-08T17:55:55.722Z,9.67
2023-04-08T17:58:23.143Z,9.57
2023-04-08T18:00:50.396Z,9.45
2023-04-08T18:03:17.272Z,9.41
2023-04-08T18:05:44.233Z,9.42
2023-04-08T18:08:11.230Z,9.45
2023-04-08T18:10:38.466Z,9.50
2023-04-08T18:13:11.304Z,9.49
2023-04-08T18:15:38.865Z,9.53
2023-04-08T18:18:05.841Z,9.46
2023-04-08T18:20:39.002Z,9.41
2023-04-08T18:23:05.799Z,9.55
2023-04-08T18:25:32.739Z,9.65
2023-04-08T18:27:59.801Z,9.73
2023-04-08T18:30:27.053Z,9.75
2023-04-08T18:32:53.877Z,9.51
2023-04-08T18:35:20.696Z,9.30
2023-04-08T18:37:47.500Z,9.24
2023-04-08T18:40:14.301Z,9.18
2023-04-08T18:42:41.068Z,9.18
2023-04-08T18:45:08.340Z,9.22
2023-04-08T18:47:35.231Z,9.07
2023-04-08T18:50:02.078Z,9.31
2023-04-08T18:52:29.177Z,9.33
2023-04-08T18:54:56.717Z,9.32
2023-04-08T18:57:23.470Z,9.27
2023-04-08T18:59:50.227Z,9.35
2023-04-08T19:02:17.117Z,9.20
2023-04-08T19:04:43.890Z,9.32
2023-04-08T19:07:12.249Z,9.19
2023-04-08T19:09:38.940Z,9.08
2023-04-08T19:12:05.774Z,9.15
2023-04-08T19:14:32.518Z,9.04
2023-04-08T19:16:59.254Z,9.11
2023-04-08T19:19:26.223Z,9.30
2023-04-08T19:21:53.911Z,9.21
2023-04-08T19:24:21.205Z,9.16
2023-04-08T19:26:49.802Z,9.08
2023-04-08T19:29:16.931Z,9.02
2023-04-08T19:31:43.745Z,9.07
2023-04-08T19:34:10.605Z,9.00
2023-04-08T19:36:37.472Z,8.96
2023-04-08T19:39:05.975Z,8.88
2023-04-08T19:41:33.004Z,8.90
2023-04-08T19:43:59.778Z,8.95
2023-04-08T19:46:28.824Z,9.03
2023-04-08T19:48:58.470Z,9.02
2023-04-08T19:51:25.264Z,9.32
2023-04-08T19:53:53.111Z,9.11
2023-04-08T19:56:20.257Z,9.29
2023-04-08T19:58:47.099Z,8.93
2023-04-08T20:01:14.732Z,9.08
2023-04-08T20:03:50.535Z,9.13
2023-04-08T20:06:20.480Z,8.94
2023-04-08T20:08:47.271Z,8.98
2023-04-08T20:11:14.037Z,9.05
2023-04-08T20:13:40.942Z,9.06
2023-04-08T20:16:07.866Z,9.00
2023-04-08T20:18:34.712Z,9.00
2023-04-08T20:21:01.490Z,8.81
2023-04-08T20:23:28.825Z,8.80
2023-04-08T20:25:56.949Z,8.91
2023-04-08T20:28:23.992Z,8.86
2023-04-08T20:30:51.981Z,8.85
2023-04-08T20:33:19.556Z,8.83
2023-04-08T20:35:47.092Z,8.90
2023-04-08T20:38:14.873Z,8.89
2023-04-08T20:40:45.448Z,8.94
2023-04-08T20:43:12.280Z,8.91
2023-04-08T20:45:38.971Z,8.92
2023-04-08T20:48:06.283Z,8.79
2023-04-08T20:50:33.448Z,8.93
2023-04-08T20:53:00.288Z,9.01
2023-04-08T20:55:27.146Z,8.89
2023-04-08T20:57:53.910Z,8.63
2023-04-08T21:00:20.913Z,8.57
2023-04-08T21:02:48.215Z,8.73
2023-04-08T21:05:15.284Z,8.75
2023-04-08T21:07:44.710Z,8.90
2023-04-08T21:10:13.125Z,9.00
2023-04-08T21:12:39.944Z,8.81
2023-04-08T21:15:07.387Z,8.72
2023-04-08T21:17:34.211Z,8.69
2023-04-08T21:20:01.205Z,8.71
2023-04-08T21:22:27.918Z,8.73
2023-04-08T21:24:57.095Z,8.75
2023-04-08T21:27:23.960Z,8.82
2023-04-08T21:29:54.223Z,8.82
2023-04-08T21:32:21.045Z,8.88
2023-04-08T21:34:47.838Z,8.93
2023-04-08T21:37:14.686Z,8.90
2023-04-08T21:39:41.503Z,8.70
2023-04-08T21:42:08.270Z,8.59
2023-04-08T21:44:35.175Z,8.65
2023-04-08T21:47:02.300Z,8.72
2023-04-08T21:49:31.905Z,8.54
2023-04-08T21:51:58.750Z,8.57
2023-04-08T21:54:25.535Z,8.68
2023-04-08T21:56:52.337Z,8.69
2023-04-08T21:59:19.494Z,8.67
2023-04-08T22:01:46.363Z,8.70
2023-04-08T22:04:13.250Z,8.69
2023-04-08T22:06:40.264Z,8.78
2023-04-08T22:09:07.409Z,8.59
2023-04-08T22:11:34.144Z,8.44
2023-04-08T22:14:01.104Z,8.47
2023-04-08T22:16:27.944Z,8.50
2023-04-08T22:18:54.934Z,8.71
2023-04-08T22:21:22.015Z,8.53
2023-04-08T22:23:48.764Z,8.49
2023-04-08T22:26:16.217Z,8.63
2023-04-08T22:28:43.250Z,8.60
2023-04-08T22:31:11.945Z,8.54
2023-04-08T22:33:39.702Z,8.55
2023-04-08T22:36:06.500Z,8.53
2023-04-08T22:38:33.482Z,8.55
2023-04-08T22:41:00.361Z,8.51
2023-04-08T22:43:27.375Z,8.47
2023-04-08T22:45:54.139Z,8.33
2023-04-08T22:48:21.140Z,8.42
2023-04-08T22:50:47.979Z,8.52
2023-04-08T22:53:14.776Z,8.56
2023-04-08T22:55:41.530Z,8.63
2023-04-08T22:58:08.336Z,8.57
2023-04-08T23:00:35.142Z,8.41
2023-04-08T23:03:04.966Z,8.54
2023-04-08T23:05:32.030Z,8.39
2023-04-08T23:07:58.846Z,8.27
2023-04-08T23:10:25.613Z,8.29
2023-04-08T23:12:52.365Z,8.34
2023-04-08T23:15:19.139Z,8.44
2023-04-08T23:17:46.141Z,8.35
2023-04-08T23:20:13.101Z,8.37
2023-04-08T23:22:39.856Z,8.32
2023-04-08T23:25:07.587Z,8.23
2023-04-08T23:27:34.424Z,8.15
2023-04-08T23:30:05.802Z,8.21
2023-04-08T23:32:33.600Z,8.12
2023-04-08T23:35:01.292Z,8.19
2023-04-08T23:37:29.020Z,8.22
2023-04-08T23:39:55.971Z,8.21
2023-04-08T23:42:27.468Z,8.44
2023-04-08T23:44:55.038Z,8.31
2023-04-08T23:47:22.361Z,8.28
2023-04-08T23:49:49.210Z,8.21
2023-04-08T23:52:16.137Z,8.24
2023-04-08T23:54:42.858Z,8.12
2023-04-08T23:57:09.594Z,8.17
2023-04-08T23:59:36.419Z,8.08
